Time;durP1;ratioP1;P1;durP2;ratioP2;P2;SDS_P1;SDS_P2;PMS_P1;PMS_P2;Temp;Humidity;BMP_temperature;BMP_pressure;BME280_temperature;BME280_humidity;BME280_pressure;Samples;Min_cycle;Max_cycle;Signal;HPM_P1;HPM_P2
2022/12/15 00:39:40;;;;;;;107.30;62.80;;;;;;;-3.34;100.00;97660.86;105769;1293;59703;-79
2022/12/15 00:42:07;;;;;;;104.90;62.40;;;;;;;-3.30;100.00;97661.42;105754;1287;59816;-79
2022/12/15 00:44:34;;;;;;;111.00;64.80;;;;;;;-3.29;100.00;97662.61;104936;1296;1002277;-80
2022/12/15 00:47:00;;;;;;;112.00;65.20;;;;;;;-3.27;100.00;97662.73;105748;1291;60134;-78
2022/12/15 01:22:45;;;;;;;145.50;80.00;;;;;;;-3.11;100.00;97703.53;105776;1287;75931;-79
2022/12/15 01:25:11;;;;;;;140.40;79.40;;;;;;;-3.12;100.00;97702.33;105779;1290;60311;-78
2022/12/15 01:27:37;;;;;;;139.60;78.30;;;;;;;-3.10;100.00;97707.12;105805;1295;72470;-79
2022/12/15 01:30:05;;;;;;;134.00;76.60;;;;;;;-3.08;100.00;97706.55;105758;1291;59725;-78
2022/12/15 01:32:31;;;;;;;139.30;79.00;;;;;;;-3.07;100.00;97702.17;104903;1301;1002259;-79
2022/12/15 01:34:57;;;;;;;143.30;83.70;;;;;;;-3.05;100.00;97706.81;105752;1285;59958;-78
2022/12/15 01:37:24;;;;;;;141.20;80.00;;;;;;;-3.04;100.00;97702.40;105775;1288;59606;-78
2022/12/15 01:42:34;;;;;;;144.30;85.80;;;;;;;-2.98;100.00;97704.46;105739;1294;59685;-79
2022/12/15 01:45:22;;;;;;;134.30;82.00;;;;;;;-2.96;100.00;97708.23;105758;1294;59727;-79
2022/12/15 01:48:01;;;;;;;141.10;80.10;;;;;;;-2.94;100.00;97711.97;105758;1291;66847;-78
2022/12/15 01:50:29;;;;;;;150.10;85.50;;;;;;;-2.91;100.00;97718.67;105778;1295;59932;-78
2022/12/15 01:52:56;;;;;;;146.90;84.20;;;;;;;-2.88;100.00;97718.57;105771;1294;65315;-78
2022/12/15 01:55:26;;;;;;;149.20;84.60;;;;;;;-2.82;100.00;97716.98;105040;1294;1002986;-78
2022/12/15 01:57:56;;;;;;;142.90;83.10;;;;;;;-2.78;100.00;97718.24;105768;1294;59690;-78
2022/12/15 02:00:22;;;;;;;;;;;;;;;-2.74;100.00;97717.42;105800;1293;67654;-79
2022/12/15 02:02:49;;;;;;;136.90;76.00;;;;;;;-2.75;100.00;97720.20;105760;1291;59643;-79
2022/12/15 02:05:15;;;;;;;133.50;75.70;;;;;;;-2.75;100.00;97725.10;105746;1290;59815;-78
2022/12/15 02:07:42;;;;;;;132.70;76.00;;;;;;;-2.74;100.00;97726.27;105776;1287;59926;-79
2022/12/15 02:10:10;;;;;;;121.30;72.20;;;;;;;-2.73;100.00;97726.55;105734;1294;59835;-78
2022/12/15 02:13:05;;;;;;;126.70;74.60;;;;;;;-2.71;100.00;97722.70;105766;1293;68093;-79
2022/12/15 02:15:41;;;;;;;135.00;73.20;;;;;;;-2.71;100.00;97723.90;105780;1294;61086;-78
2022/12/15 02:18:34;;;;;;;150.90;81.10;;;;;;;-2.70;100.00;97730.65;105616;1301;64608;-78
2022/12/15 02:21:09;;;;;;;131.10;73.40;;;;;;;-2.68;100.00;97728.66;105767;1295;59753;-79
2022/12/15 02:23:52;;;;;;;133.10;75.80;;;;;;;-2.66;100.00;97730.51;105752;1293;59715;-79
2022/12/15 02:26:44;;;;;;;135.20;75.80;;;;;;;-2.66;100.00;97730.50;105779;1293;73996;-79
2022/12/15 02:29:37;;;;;;;128.40;72.50;;;;;;;-2.65;100.00;97738.30;105763;1294;69731;-77
2022/12/15 02:32:13;;;;;;;119.50;68.90;;;;;;;-2.67;100.00;97740.27;105767;1295;73862;-78
2022/12/15 02:34:51;;;;;;;135.50;78.80;;;;;;;-2.67;100.00;97746.88;105778;1290;59676;-78
2022/12/15 02:37:38;;;;;;;130.60;76.90;;;;;;;-2.65;100.00;97753.09;105760;1298;61189;-78
2022/12/15 02:40:08;;;;;;;119.90;68.70;;;;;;;-2.63;100.00;97757.71;105772;1295;66899;-78
2022/12/15 02:42:41;;;;;;;130.10;74.10;;;;;;;-2.62;100.00;97758.21;105655;1294;61149;-78
2022/12/15 02:45:12;;;;;;;116.80;69.40;;;;;;;-2.62;100.00;97753.33;105742;1295;71453;-79
2022/12/15 02:47:44;;;;;;;115.20;66.90;;;;;;;-2.61;100.00;97758.01;105743;1289;59647;-78
2022/12/15 02:50:29;;;;;;;118.60;68.80;;;;;;;-2.62;100.00;97761.33;105782;1295;59682;-78
2022/12/15 02:53:19;;;;;;;114.50;68.60;;;;;;;-2.61;100.00;97765.66;105753;1290;67071;-79
2022/12/15 02:56:14;;;;;;;113.10;65.80;;;;;;;-2.61;100.00;97770.52;105054;1292;1002501;-78
2022/12/15 02:58:54;;;;;;;118.40;67.60;;;;;;;-2.62;100.00;97768.63;105741;1295;64460;-79
2022/12/15 03:01:28;;;;;;;121.00;71.70;;;;;;;-2.62;100.00;97771.95;105807;1295;59959;-79
2022/12/15 03:03:57;;;;;;;107.90;65.50;;;;;;;-2.60;100.00;97770.30;105556;1289;59964;-79
2022/12/15 03:06:25;;;;;;;106.60;63.30;;;;;;;-2.59;100.00;97771.29;105784;1293;65375;-79
2022/12/15 03:08:51;;;;;;;117.90;69.60;;;;;;;-2.58;100.00;97771.61;105775;1288;61199;-79
2022/12/15 03:11:17;;;;;;;115.60;70.60;;;;;;;-2.56;100.00;97774.50;105743;1291;59869;-78
2022/12/15 03:13:43;;;;;;;118.60;68.60;;;;;;;-2.54;100.00;97778.27;105751;1290;59686;-78
2022/12/15 03:16:09;;;;;;;113.40;70.70;;;;;;;-2.53;100.00;97781.70;105773;1294;59787;-79
2022/12/15 03:18:35;;;;;;;116.40;68.00;;;;;;;-2.51;100.00;97783.75;105959;1290;59747;-79
2022/12/15 03:21:02;;;;;;;118.40;70.80;;;;;;;-2.50;100.00;97790.14;105770;1288;59677;-78
2022/12/15 03:23:28;;;;;;;117.90;72.30;;;;;;;-2.49;100.00;97791.67;105846;1290;59936;-78
2022/12/15 03:25:54;;;;;;;124.70;71.20;;;;;;;-2.48;100.00;97795.27;105841;1294;59989;-77
2022/12/15 03:28:20;;;;;;;112.50;68.00;;;;;;;-2.46;100.00;97796.23;105832;1295;59706;-78
2022/12/15 03:30:49;;;;;;;118.50;70.60;;;;;;;-2.44;100.00;97794.09;105773;1294;59781;-78
2022/12/15 03:33:16;;;;;;;116.70;68.60;;;;;;;-2.41;100.00;97793.66;105617;1292;59868;-78
2022/12/15 03:35:42;;;;;;;114.10;68.20;;;;;;;-2.39;100.00;97797.78;105712;1288;59726;-79
2022/12/15 03:38:08;;;;;;;115.50;70.70;;;;;;;-2.38;100.00;97802.77;105767;1288;59640;-78
2022/12/15 03:40:34;;;;;;;113.40;66.10;;;;;;;-2.36;100.00;97809.48;105667;1293;59601;-78
2022/12/15 03:43:00;;;;;;;114.60;68.40;;;;;;;-2.35;100.00;97810.12;105780;1275;59734;-79
2022/12/15 03:45:27;;;;;;;105.70;64.60;;;;;;;-2.34;100.00;97814.97;105780;1294;59718;-78
2022/12/15 03:47:54;;;;;;;109.40;66.80;;;;;;;-2.33;100.00;97821.20;105788;1295;69580;-80
2022/12/15 03:50:24;;;;;;;112.80;68.80;;;;;;;-2.31;100.00;97825.48;105769;1294;59822;-79
2022/12/15 03:52:55;;;;;;;103.20;60.00;;;;;;;-2.30;100.00;97829.44;105766;1284;59947;-80
2022/12/15 03:55:23;;;;;;;98.40;60.40;;;;;;;-2.28;100.00;97834.09;105588;1288;67863;-79
2022/12/15 03:57:50;;;;;;;99.00;60.20;;;;;;;-2.28;100.00;97838.60;105720;1298;69098;-78
2022/12/15 04:00:17;;;;;;;95.60;57.30;;;;;;;-2.27;100.00;97838.91;105767;1295;64084;-77
2022/12/15 04:02:45;;;;;;;100.90;60.90;;;;;;;-2.27;100.00;97839.59;105768;1290;59755;-79
2022/12/15 04:05:20;;;;;;;97.80;59.70;;;;;;;-2.27;100.00;97842.55;105758;1285;59723;-78
2022/12/15 04:07:46;;;;;;;95.00;56.30;;;;;;;-2.26;100.00;97847.39;105777;1294;66688;-78
2022/12/15 04:10:14;;;;;;;92.90;55.80;;;;;;;-2.25;100.00;97848.95;105782;1295;60338;-79
2022/12/15 04:12:40;;;;;;;99.00;59.00;;;;;;;-2.26;100.00;97845.66;105772;1299;59902;-79
2022/12/15 04:15:07;;;;;;;102.40;62.20;;;;;;;-2.26;100.00;97849.34;105789;1290;59760;-79
2022/12/15 04:17:34;;;;;;;88.50;54.60;;;;;;;-2.26;100.00;97850.89;105556;1294;59736;-79
2022/12/15 04:20:10;;;;;;;91.90;57.10;;;;;;;-2.24;100.00;97856.73;105303;1299;66664;-78
2022/12/15 04:22:40;;;;;;;93.50;57.20;;;;;;;-2.24;100.00;97863.70;105554;1301;59971;-79
2022/12/15 05:33:59;;;;;;;85.50;49.60;;;;;;;-2.14;100.00;97953.30;105770;1293;64214;-79
2022/12/15 05:36:25;;;;;;;85.10;50.00;;;;;;;-2.13;100.00;97954.16;105763;1291;60079;-79
2022/12/15 05:38:52;;;;;;;89.10;52.70;;;;;;;-2.11;100.00;97951.30;105793;1296;59682;-79
2022/12/15 05:41:20;;;;;;;89.50;53.00;;;;;;;-2.09;100.00;97953.15;105792;1295;59917;-79
2022/12/15 05:43:46;;;;;;;91.40;52.10;;;;;;;-2.08;100.00;97959.04;105783;1297;61332;-79
2022/12/15 05:46:13;;;;;;;90.80;53.60;;;;;;;-2.08;100.00;97957.64;105758;1295;59764;-79
2022/12/15 05:48:40;;;;;;;71.60;44.10;;;;;;;-2.07;100.00;97958.99;105505;1296;59715;-79
2022/12/15 05:51:08;;;;;;;89.80;51.90;;;;;;;-2.07;100.00;97965.98;105787;1296;60166;-80
2022/12/15 05:53:36;;;;;;;79.10;48.20;;;;;;;-2.06;100.00;97977.09;105800;1291;67943;-78
2022/12/15 05:56:05;;;;;;;84.20;53.00;;;;;;;-2.07;100.00;97979.71;105651;1298;60076;-79
2022/12/15 05:58:31;;;;;;;89.70;53.90;;;;;;;-2.08;100.00;97984.45;105634;1296;62320;-79
2022/12/15 06:01:06;;;;;;;83.20;48.00;;;;;;;-2.08;100.00;97983.58;105596;1295;60298;-79
2022/12/15 06:03:32;;;;;;;87.30;53.90;;;;;;;-2.09;100.00;97990.21;105598;1301;59667;-79
2022/12/15 06:05:59;;;;;;;79.00;47.90;;;;;;;-2.09;100.00;97996.49;105597;1301;68036;-78
2022/12/15 06:08:28;;;;;;;86.00;53.80;;;;;;;-2.08;100.00;97995.23;105603;1293;59880;-78
2022/12/15 06:10:55;;;;;;;81.90;50.40;;;;;;;-2.07;100.00;98006.69;105604;1294;65222;-78
2022/12/15 06:13:23;;;;;;;90.00;53.20;;;;;;;-2.06;100.00;98016.40;105610;1295;60074;-78
2022/12/15 06:16:02;;;;;;;83.30;51.20;;;;;;;-2.06;100.00;98023.52;105544;1298;59730;-78
2022/12/15 06:18:31;;;;;;;79.80;47.10;;;;;;;-2.07;100.00;98027.39;105616;1301;66621;-79
2022/12/15 06:21:00;;;;;;;76.70;47.30;;;;;;;-2.07;100.00;98030.20;105600;1301;61235;-78
2022/12/15 06:23:30;;;;;;;81.50;49.50;;;;;;;-2.07;100.00;98035.06;105613;1294;63775;-77
2022/12/15 06:25:56;;;;;;;81.60;49.60;;;;;;;-2.07;100.00;98038.35;105605;1287;60131;-78
2022/12/15 06:28:25;;;;;;;81.40;49.40;;;;;;;-2.08;100.00;98041.16;104966;1293;1002479;-78
2022/12/15 06:30:55;;;;;;;83.00;48.30;;;;;;;-2.08;100.00;98045.00;105751;1295;75477;-78
2022/12/15 06:33:22;;;;;;;76.50;46.30;;;;;;;-2.08;100.00;98049.50;105738;1294;61221;-78
2022/12/15 06:35:48;;;;;;;77.80;48.20;;;;;;;-2.08;100.00;98054.05;105762;1291;65155;-77
2022/12/15 06:38:14;;;;;;;83.10;51.90;;;;;;;-2.09;100.00;98057.71;105756;1290;60041;-77
2022/12/15 06:40:41;;;;;;;83.80;50.40;;;;;;;-2.06;100.00;98058.35;105779;1298;60397;-78
2022/12/15 06:43:07;;;;;;;81.90;49.80;;;;;;;-2.05;100.00;98065.44;105788;1287;59681;-77
2022/12/15 06:45:34;;;;;;;79.10;49.30;;;;;;;-2.04;100.00;98068.70;105138;1294;1002780;-79
2022/12/15 06:48:00;;;;;;;81.20;48.90;;;;;;;-2.05;100.00;98072.23;105832;1286;59984;-79
2022/12/15 06:50:26;;;;;;;86.00;50.90;;;;;;;-2.04;100.00;98081.08;105780;1298;60138;-78
2022/12/15 06:52:52;;;;;;;80.60;49.20;;;;;;;-2.04;100.00;98082.62;105765;1287;60055;-78
2022/12/15 06:55:19;;;;;;;83.30;48.90;;;;;;;-2.03;100.00;98095.84;105779;1295;59723;-78
2022/12/15 06:57:48;;;;;;;95.00;53.10;;;;;;;-2.03;100.00;98099.83;105753;1298;59861;-79
2022/12/15 07:00:14;;;;;;;84.40;49.30;;;;;;;-2.01;100.00;98106.21;105763;1295;65275;-78
2022/12/15 07:02:41;;;;;;;79.70;48.90;;;;;;;-1.99;100.00;98113.45;105737;1287;59657;-79
2022/12/15 07:05:08;;;;;;;79.30;48.80;;;;;;;-1.96;100.00;98116.50;105759;1294;59595;-81
2022/12/15 07:07:34;;;;;;;74.70;46.40;;;;;;;-1.93;100.00;98113.45;105793;1294;60373;-78
2022/12/15 07:10:00;;;;;;;77.80;48.00;;;;;;;-1.90;100.00;98117.04;105753;1291;59965;-78
2022/12/15 07:12:26;;;;;;;75.30;44.00;;;;;;;-1.89;100.00;98119.08;105737;1293;59760;-78
2022/12/15 07:14:52;;;;;;;68.40;42.40;;;;;;;-1.87;100.00;98125.29;105809;1293;60165;-80
2022/12/15 07:17:18;;;;;;;70.20;43.10;;;;;;;-1.85;100.00;98128.34;105783;1295;59710;-78
2022/12/15 07:19:44;;;;;;;68.40;41.80;;;;;;;-1.83;100.00;98129.34;105756;1286;60021;-78
2022/12/15 07:22:10;;;;;;;69.80;43.00;;;;;;;-1.82;100.00;98136.27;105775;1289;59949;-79
2022/12/15 07:24:36;;;;;;;66.10;42.10;;;;;;;-1.83;100.00;98147.61;105784;1287;59656;-78
2022/12/15 07:27:02;;;;;;;64.60;42.40;;;;;;;-1.84;100.00;98158.61;105813;1291;59742;-79
2022/12/15 07:29:27;;;;;;;70.20;44.30;;;;;;;-1.85;100.00;98164.41;105767;1291;66829;-79
2022/12/15 07:31:54;;;;;;;63.90;40.40;;;;;;;-1.83;100.00;98172.36;105761;1288;59861;-78
2022/12/15 07:34:20;;;;;;;62.70;40.10;;;;;;;-1.83;100.00;98174.44;105758;1295;59878;-78
2022/12/15 07:36:46;;;;;;;63.90;42.40;;;;;;;-1.83;100.00;98175.30;105775;1298;59858;-79
2022/12/15 07:39:14;;;;;;;67.80;44.30;;;;;;;-1.85;100.00;98178.50;105775;1290;59736;-78
2022/12/15 07:41:41;;;;;;;62.80;43.70;;;;;;;-1.84;100.00;98178.30;105748;1295;76522;-78
2022/12/15 07:44:07;;;;;;;68.80;43.30;;;;;;;-1.83;100.00;98182.61;105775;1293;60113;-78
2022/12/15 07:46:34;;;;;;;69.90;42.50;;;;;;;-1.83;100.00;98181.38;105752;1294;60120;-79
2022/12/15 07:49:00;;;;;;;66.50;42.00;;;;;;;-1.81;100.00;98187.79;105781;1290;59683;-78
2022/12/15 07:51:26;;;;;;;66.20;43.20;;;;;;;-1.80;100.00;98189.64;104782;1294;1002511;-78
2022/12/15 07:53:52;;;;;;;64.70;41.60;;;;;;;-1.78;100.00;98196.39;105768;1295;59884;-78
2022/12/15 07:56:19;;;;;;;62.70;38.80;;;;;;;-1.78;100.00;98201.77;105759;1291;59678;-79
2022/12/15 07:58:46;;;;;;;64.70;40.10;;;;;;;-1.76;100.00;98204.88;105773;1294;59826;-78
2022/12/15 08:01:13;;;;;;;65.80;41.20;;;;;;;-1.76;100.00;98204.17;105759;1291;59875;-79
2022/12/15 08:03:39;;;;;;;71.90;45.50;;;;;;;-1.75;100.00;98204.65;105754;1288;59708;-77
2022/12/15 08:06:10;;;;;;;66.00;41.40;;;;;;;-1.74;100.00;98210.56;105757;1294;59694;-79
2022/12/15 08:08:36;;;;;;;65.80;42.50;;;;;;;-1.74;100.00;98219.08;105775;1294;60076;-79
2022/12/15 08:11:04;;;;;;;68.10;41.90;;;;;;;-1.74;100.00;98217.69;105767;1294;59700;-78
2022/12/15 08:13:32;;;;;;;65.60;42.60;;;;;;;-1.73;100.00;98223.23;105645;1286;59713;-79
2022/12/15 08:15:58;;;;;;;67.20;43.60;;;;;;;-1.71;100.00;98235.20;105752;1301;59644;-78
2022/12/15 08:18:24;;;;;;;70.70;43.70;;;;;;;-1.70;100.00;98232.20;105802;1284;60743;-79
2022/12/15 08:20:51;;;;;;;69.30;43.30;;;;;;;-1.69;100.00;98234.43;105775;1293;59809;-78
2022/12/15 08:23:17;;;;;;;68.60;44.40;;;;;;;-1.69;100.00;98249.05;105776;1293;59839;-78
2022/12/15 08:25:43;;;;;;;71.80;46.50;;;;;;;-1.69;100.00;98245.75;105058;1290;1003236;-79
2022/12/15 08:28:09;;;;;;;75.20;46.40;;;;;;;-1.68;100.00;98249.04;105774;1290;59758;-77
2022/12/15 08:30:36;;;;;;;79.40;50.30;;;;;;;-1.68;100.00;98248.16;105660;1288;59926;-75
2022/12/15 08:33:03;;;;;;;77.80;47.70;;;;;;;-1.71;100.00;98256.43;105785;1295;59908;-78
2022/12/15 08:35:30;;;;;;;70.30;42.70;;;;;;;-1.70;100.00;98260.77;105756;1294;60638;-76
2022/12/15 08:37:56;;;;;;;73.30;44.60;;;;;;;-1.72;100.00;98265.89;105754;1295;59779;-77
2022/12/15 08:40:22;;;;;;;72.60;45.40;;;;;;;-1.73;100.00;98267.83;105778;1287;59751;-75
2022/12/15 08:42:47;;;;;;;64.30;43.00;;;;;;;-1.69;100.00;98273.10;105605;1287;60103;-78
2022/12/15 08:45:13;;;;;;;66.00;40.50;;;;;;;-1.65;100.00;98277.33;105790;1291;59765;-78
2022/12/15 08:47:40;;;;;;;61.70;40.10;;;;;;;-1.61;100.00;98280.35;105813;1285;59807;-78
2022/12/15 08:50:07;;;;;;;66.30;40.70;;;;;;;-1.58;100.00;98278.16;105755;1295;59740;-78
2022/12/15 08:52:33;;;;;;;61.40;40.20;;;;;;;-1.52;100.00;98277.30;105771;1288;59696;-78
2022/12/15 08:54:59;;;;;;;61.30;40.90;;;;;;;-1.45;100.00;98272.20;105762;1294;60081;-78
2022/12/15 08:57:26;;;;;;;63.60;40.90;;;;;;;-1.39;100.00;98272.53;105790;1279;59823;-78
2022/12/15 08:59:51;;;;;;;62.20;40.00;;;;;;;-1.33;100.00;98268.52;105779;1290;60394;-78
2022/12/15 09:02:17;;;;;;;61.90;39.90;;;;;;;-1.25;100.00;98278.75;105806;1302;59638;-78
2022/12/15 09:04:44;;;;;;;70.10;43.00;;;;;;;-1.20;100.00;98281.70;105763;1287;66792;-78
2022/12/15 09:07:10;;;;;;;64.90;40.00;;;;;;;-1.18;100.00;98284.98;105750;1286;59846;-78
2022/12/15 09:09:37;;;;;;;66.30;42.30;;;;;;;-1.14;100.00;98285.21;105755;1294;59806;-77
2022/12/15 09:12:04;;;;;;;68.10;43.10;;;;;;;-1.09;100.00;98290.81;105761;1287;59713;-75
2022/12/15 09:14:30;;;;;;;64.20;41.80;;;;;;;-1.05;100.00;98289.11;105787;1290;59743;-78
2022/12/15 09:16:56;;;;;;;65.10;41.00;;;;;;;-0.99;100.00;98288.22;105519;1297;59799;-78
2022/12/15 09:19:22;;;;;;;65.00;42.10;;;;;;;-0.93;100.00;98289.24;105771;1294;59649;-79
2022/12/15 09:21:48;;;;;;;64.10;40.30;;;;;;;-0.90;100.00;98291.92;105763;1294;60278;-78
2022/12/15 09:24:16;;;;;;;60.70;39.40;;;;;;;-0.86;100.00;98293.20;105790;1290;59667;-77
2022/12/15 09:26:43;;;;;;;61.90;41.40;;;;;;;-0.84;100.00;98297.31;105802;1291;59796;-78
2022/12/15 09:29:11;;;;;;;63.30;40.30;;;;;;;-0.81;100.00;98294.27;105764;1285;66608;-78
2022/12/15 09:31:38;;;;;;;60.80;38.60;;;;;;;-0.78;100.00;98295.58;105625;1293;59829;-78
2022/12/15 09:34:05;;;;;;;66.90;41.70;;;;;;;-0.75;100.00;98299.13;105833;1287;63816;-79
2022/12/15 09:36:31;;;;;;;60.40;39.70;;;;;;;-0.72;100.00;98298.66;105784;1280;59762;-78
2022/12/15 09:38:58;;;;;;;64.40;40.60;;;;;;;-0.66;100.00;98301.80;105796;1294;59800;-81
2022/12/15 09:41:27;;;;;;;63.30;41.20;;;;;;;-0.60;100.00;98297.93;105800;1288;59797;-78
2022/12/15 09:44:02;;;;;;;62.50;40.30;;;;;;;-0.50;100.00;98293.41;105784;1293;68575;-79
2022/12/15 09:46:55;;;;;;;57.20;39.30;;;;;;;-0.46;100.00;98292.91;105791;1290;65625;-78
2022/12/15 09:49:27;;;;;;;66.20;43.30;;;;;;;-0.42;100.00;98298.39;105774;1284;59673;-79
2022/12/15 09:52:10;;;;;;;62.20;42.30;;;;;;;-0.40;100.00;98305.48;105771;1287;59499;-78
2022/12/15 09:54:37;;;;;;;59.30;41.00;;;;;;;-0.36;100.00;98310.58;105777;1278;76516;-78
2022/12/15 09:57:13;;;;;;;61.30;42.30;;;;;;;-0.36;100.00;98304.99;105760;1291;69981;-78
2022/12/15 10:00:06;;;;;;;60.60;40.90;;;;;;;-0.29;100.00;98303.71;105532;1291;71017;-78
2022/12/15 10:02:44;;;;;;;60.90;40.20;;;;;;;-0.21;100.00;98305.34;105400;1300;60279;-78
2022/12/15 10:05:36;;;;;;;63.60;41.50;;;;;;;-0.12;100.00;98313.41;105272;1294;59800;-77
2022/12/15 10:08:02;;;;;;;59.40;39.80;;;;;;;-0.09;100.00;98319.07;105284;1298;66666;-78
2022/12/15 10:10:58;;;;;;;64.80;40.20;;;;;;;-0.10;100.00;98308.79;105280;1299;59867;-79
2022/12/15 10:13:38;;;;;;;59.00;39.90;;;;;;;-0.06;100.00;98297.67;105258;1299;65099;-78
2022/12/15 10:16:27;;;;;;;58.40;39.70;;;;;;;-0.02;100.00;98306.05;105214;1300;59715;-78
2022/12/15 10:19:01;;;;;;;61.00;40.20;;;;;;;-0.01;100.00;98314.61;105326;1293;59723;-79
2022/12/15 10:21:29;;;;;;;67.10;44.70;;;;;;;-0.06;100.00;98315.11;105297;1296;65308;-79
2022/12/15 10:24:11;;;;;;;62.00;43.10;;;;;;;-0.11;100.00;98309.19;105277;1301;61275;-79
2022/12/15 10:26:38;;;;;;;64.00;42.70;;;;;;;-0.13;100.00;98298.42;105287;1299;64013;-79
2022/12/15 10:29:31;;;;;;;62.60;42.10;;;;;;;-0.10;100.00;98293.45;105294;1293;59716;-78
2022/12/15 10:32:04;;;;;;;59.60;40.20;;;;;;;-0.06;100.00;98295.23;104608;1305;59865;-79
2022/12/15 10:34:37;;;;;;;56.80;40.50;;;;;;;-0.05;100.00;98293.61;103200;1297;1002361;-78
2022/12/15 10:37:03;;;;;;;61.40;40.10;;;;;;;-0.06;100.00;98294.52;104638;1307;61117;-79
2022/12/15 10:39:41;;;;;;;57.80;39.60;;;;;;;-0.05;100.00;98292.73;104826;1300;62678;-80
2022/12/15 10:42:22;;;;;;;64.30;38.80;;;;;;;0.00;100.00;98300.95;105225;1300;59957;-78
2022/12/15 10:44:54;;;;;;;64.20;43.80;;;;;;;0.03;100.00;98302.59;103043;1301;1002742;-80
2022/12/15 10:47:24;;;;;;;71.60;48.90;;;;;;;0.03;100.00;98305.40;105070;1300;194082;-80
2022/12/15 10:49:53;;;;;;;77.20;51.30;;;;;;;-0.03;100.00;98305.08;105255;1300;61092;-79
2022/12/15 10:52:31;;;;;;;71.00;46.50;;;;;;;-0.08;100.00;98316.40;105224;1300;64069;-78
2022/12/15 10:54:57;;;;;;;70.90;46.40;;;;;;;-0.09;100.00;98319.27;105258;1307;60061;-78
2022/12/15 10:57:30;;;;;;;71.60;46.60;;;;;;;-0.08;100.00;98313.98;105227;1294;59835;-79
2022/12/15 11:00:18;;;;;;;74.70;48.60;;;;;;;-0.09;100.00;98322.21;105226;1300;66825;-79
2022/12/15 11:02:43;;;;;;;68.60;44.00;;;;;;;-0.19;100.00;98332.84;105310;1292;67630;-78
2022/12/15 11:05:14;;;;;;;71.10;45.90;;;;;;;-0.27;100.00;98335.92;104623;1293;1002362;-77
2022/12/15 11:07:49;;;;;;;75.50;47.00;;;;;;;-0.29;100.00;98330.58;105309;1307;59880;-79
2022/12/15 11:10:20;;;;;;;69.10;46.70;;;;;;;-0.28;100.00;98320.59;105611;1295;59781;-79
2022/12/15 11:13:11;;;;;;;73.50;45.00;;;;;;;-0.31;100.00;98322.09;105767;1293;66774;-78
2022/12/15 11:15:41;;;;;;;69.40;44.10;;;;;;;-0.30;100.00;98328.34;105660;1293;60781;-79
2022/12/15 11:18:14;;;;;;;71.80;44.40;;;;;;;-0.28;100.00;98325.11;105756;1294;64828;-78
2022/12/15 11:20:46;;;;;;;68.40;44.40;;;;;;;-0.23;100.00;98327.74;105774;1285;59819;-79
2022/12/15 11:23:22;;;;;;;70.40;44.40;;;;;;;-0.18;100.00;98330.58;105754;1293;59781;-78
2022/12/15 11:25:58;;;;;;;67.40;44.80;;;;;;;-0.17;100.00;98338.02;105407;1292;75672;-81
2022/12/15 11:28:38;;;;;;;67.70;45.30;;;;;;;-0.17;100.00;98343.09;105756;1286;67741;-79
2022/12/15 11:31:17;;;;;;;68.30;45.00;;;;;;;-0.15;100.00;98340.57;105758;1293;63768;-79
2022/12/15 11:33:42;;;;;;;64.90;44.30;;;;;;;-0.10;100.00;98336.57;105766;1287;60190;-78
2022/12/15 11:36:48;;;;;;;64.00;44.90;;;;;;;-0.10;100.00;98335.33;105771;1290;59805;-79
2022/12/15 11:39:30;;;;;;;77.40;45.80;;;;;;;-0.11;100.00;98337.65;105067;1302;75706;-79
2022/12/15 11:42:06;;;;;;;67.70;44.90;;;;;;;-0.07;100.00;98344.85;105051;1302;70421;-79
2022/12/15 11:44:40;;;;;;;62.30;43.30;;;;;;;-0.11;100.00;98347.95;104914;1303;64539;-79
2022/12/15 11:47:06;;;;;;;71.40;45.10;;;;;;;-0.20;100.00;98355.41;105027;1302;59827;-79
2022/12/15 11:50:07;;;;;;;65.60;43.70;;;;;;;-0.27;100.00;98359.13;105053;1293;60333;-79
2022/12/15 11:52:42;;;;;;;70.30;44.00;;;;;;;-0.29;100.00;98360.41;104312;1308;68142;-79
2022/12/15 11:55:25;;;;;;;63.20;43.60;;;;;;;-0.22;100.00;98353.54;104337;1310;61678;-76
2022/12/15 11:58:34;;;;;;;71.40;46.90;;;;;;;-0.15;100.00;98351.22;104306;1308;62668;-80
2022/12/15 12:01:17;;;;;;;72.30;47.90;;;;;;;-0.12;100.00;98358.81;103729;1314;59827;-75
2022/12/15 12:04:04;;;;;;;71.10;45.50;;;;;;;-0.12;100.00;98374.02;103730;1307;59714;-77
2022/12/15 12:06:37;;;;;;;72.10;49.10;;;;;;;-0.16;100.00;98368.37;103737;1314;68292;-78
2022/12/15 12:09:26;;;;;;;76.90;52.40;;;;;;;-0.18;100.00;98365.63;103657;1314;60057;-78
2022/12/15 12:12:17;;;;;;;74.40;52.00;;;;;;;-0.18;100.00;98370.89;103756;1314;65101;-78
2022/12/15 12:15:02;;;;;;;81.10;52.70;;;;;;;-0.12;100.00;98373.13;103687;1314;59920;-79
2022/12/15 12:17:37;;;;;;;80.10;53.10;;;;;;;-0.11;100.00;98377.45;104097;1311;59824;-78
2022/12/15 12:20:21;;;;;;;76.40;52.10;;;;;;;-0.08;100.00;98376.46;104194;1311;67868;-78
2022/12/15 12:23:21;;;;;;;131.50;74.20;;;;;;;-0.03;100.00;98377.86;104229;1309;67570;-78
2022/12/15 12:26:01;;;;;;;92.90;58.00;;;;;;;0.01;100.00;98372.51;103690;1315;72898;-79
2022/12/15 12:28:39;;;;;;;108.10;59.20;;;;;;;0.06;100.00;98358.88;103694;1315;60249;-79
2022/12/15 12:31:17;;;;;;;91.10;56.10;;;;;;;0.05;100.00;98348.43;104432;1301;59645;-79
2022/12/15 12:33:51;;;;;;;94.40;70.20;;;;;;;-0.03;100.00;98348.38;104324;1307;67897;-79
2022/12/15 12:36:17;;;;;;;96.20;66.60;;;;;;;-0.11;100.00;98358.42;104889;1300;60057;-80
2022/12/15 12:38:57;;;;;;;84.20;59.70;;;;;;;-0.17;100.00;98366.64;104917;1305;60066;-78
2022/12/15 12:41:48;;;;;;;108.70;73.40;;;;;;;-0.17;100.00;98362.29;104929;1295;59761;-78
2022/12/15 12:44:33;;;;;;;93.70;60.90;;;;;;;-0.16;100.00;98354.75;104947;1302;60315;-75
2022/12/15 12:47:25;;;;;;;65.40;46.70;;;;;;;-0.18;100.00;98357.63;104931;1303;67796;-78
2022/12/15 12:49:53;;;;;;;;;;;;;;;-0.17;100.00;98367.39;104974;1303;61807;-78
2022/12/15 12:52:23;;;;;;;70.50;48.00;;;;;;;-0.19;100.00;98371.08;104931;1303;62337;-79
2022/12/15 12:55:01;;;;;;;76.40;48.60;;;;;;;-0.15;100.00;98379.15;104945;1311;60035;-79
2022/12/15 12:57:47;;;;;;;68.40;46.80;;;;;;;-0.06;100.00;98380.07;104931;1303;61599;-77
2022/12/15 13:00:17;;;;;;;66.70;48.20;;;;;;;-0.00;100.00;98375.35;104939;1305;66933;-78
2022/12/15 13:03:15;;;;;;;77.90;48.20;;;;;;;-0.01;100.00;98372.91;105226;1291;61064;-79
2022/12/15 13:05:44;;;;;;;76.20;53.60;;;;;;;-0.07;100.00;98374.34;105713;1294;63953;-79
2022/12/15 13:08:13;;;;;;;83.80;52.10;;;;;;;-0.12;100.00;98371.02;105677;1294;59730;-80
2022/12/15 13:10:42;;;;;;;79.60;51.10;;;;;;;-0.13;100.00;98365.83;105689;1294;59697;-79
2022/12/15 13:13:26;;;;;;;80.10;55.50;;;;;;;-0.16;100.00;98360.16;105442;1297;66750;-78
2022/12/15 13:16:22;;;;;;;88.20;59.20;;;;;;;-0.20;100.00;98356.46;105675;1293;60140;-79
2022/12/15 13:19:02;;;;;;;96.10;65.70;;;;;;;-0.26;100.00;98355.77;105715;1295;72117;-79
2022/12/15 13:21:43;;;;;;;81.70;52.90;;;;;;;-0.28;100.00;98356.17;105740;1295;59959;-81
2022/12/15 13:24:33;;;;;;;83.80;51.40;;;;;;;-0.24;100.00;98356.43;105763;1290;60270;-80
2022/12/15 13:27:16;;;;;;;77.30;49.80;;;;;;;-0.24;100.00;98354.33;105772;1295;68024;-79
2022/12/15 13:30:03;;;;;;;81.50;49.40;;;;;;;-0.30;100.00;98355.22;105774;1293;59806;-78
2022/12/15 13:32:40;;;;;;;80.50;48.70;;;;;;;-0.34;100.00;98365.64;105745;1291;64072;-79
2022/12/15 13:35:13;;;;;;;86.80;54.90;;;;;;;-0.36;100.00;98369.90;105632;1295;60065;-79
2022/12/15 13:37:57;;;;;;;92.40;55.70;;;;;;;-0.36;100.00;98362.23;105702;1294;59956;-77
2022/12/15 13:40:33;;;;;;;90.90;55.00;;;;;;;-0.39;100.00;98368.27;105785;1291;66864;-80
2022/12/15 13:43:04;;;;;;;93.50;57.90;;;;;;;-0.42;100.00;98370.29;105652;1293;68619;-79
2022/12/15 13:45:42;;;;;;;101.90;62.60;;;;;;;-0.43;100.00;98379.23;105759;1302;65309;-80